sensor_id;sensor_type;location;lat;lon;timestamp;P1;durP1;ratioP1;P2;durP2;ratioP2
21034;SDS011;10676;50.848;3.272;2023-07-13T00:00:25;12.73;;;2.22;;
21034;SDS011;10676;50.848;3.272;2023-07-13T00:02:51;9.70;;;2.15;;
21034;SDS011;10676;50.848;3.272;2023-07-13T00:05:20;15.50;;;2.53;;
21034;SDS011;10676;50.848;3.272;2023-07-13T00:07:46;11.07;;;2.20;;
21034;SDS011;10676;50.848;3.272;2023-07-13T00:10:13;12.50;;;2.35;;
21034;SDS011;10676;50.848;3.272;2023-07-13T00:12:38;11.98;;;2.60;;
21034;SDS011;10676;50.848;3.272;2023-07-13T00:15:10;14.48;;;3.05;;
21034;SDS011;10676;50.848;3.272;2023-07-13T00:17:41;14.93;;;2.75;;
21034;SDS011;10676;50.848;3.272;2023-07-13T00:20:11;13.85;;;3.15;;
21034;SDS011;10676;50.848;3.272;2023-07-13T00:22:37;15.60;;;2.90;;
21034;SDS011;10676;50.848;3.272;2023-07-13T00:25:05;10.13;;;2.75;;
21034;SDS011;10676;50.848;3.272;2023-07-13T00:27:31;14.23;;;2.83;;
21034;SDS011;10676;50.848;3.272;2023-07-13T00:29:57;10.15;;;2.40;;
21034;SDS011;10676;50.848;3.272;2023-07-13T00:32:23;14.02;;;2.75;;
21034;SDS011;10676;50.848;3.272;2023-07-13T00:34:52;14.60;;;2.85;;
21034;SDS011;10676;50.848;3.272;2023-07-13T00:37:18;14.95;;;3.13;;
21034;SDS011;10676;50.848;3.272;2023-07-13T00:39:44;11.05;;;2.42;;
21034;SDS011;10676;50.848;3.272;2023-07-13T00:42:12;11.10;;;2.50;;
21034;SDS011;10676;50.848;3.272;2023-07-13T00:44:37;11.93;;;3.15;;
21034;SDS011;10676;50.848;3.272;2023-07-13T00:47:05;15.60;;;3.58;;
21034;SDS011;10676;50.848;3.272;2023-07-13T00:49:31;15.63;;;3.33;;
21034;SDS011;10676;50.848;3.272;2023-07-13T00:52:00;19.48;;;2.72;;
21034;SDS011;10676;50.848;3.272;2023-07-13T00:54:32;11.55;;;2.85;;
21034;SDS011;10676;50.848;3.272;2023-07-13T00:57:05;14.85;;;3.13;;
21034;SDS011;10676;50.848;3.272;2023-07-13T00:59:36;12.27;;;2.88;;
21034;SDS011;10676;50.848;3.272;2023-07-13T01:02:03;13.80;;;2.78;;
21034;SDS011;10676;50.848;3.272;2023-07-13T01:04:29;18.55;;;2.92;;
21034;SDS011;10676;50.848;3.272;2023-07-13T01:06:55;13.65;;;2.95;;
21034;SDS011;10676;50.848;3.272;2023-07-13T01:09:21;15.93;;;3.05;;
21034;SDS011;10676;50.848;3.272;2023-07-13T01:11:48;22.17;;;3.90;;
21034;SDS011;10676;50.848;3.272;2023-07-13T01:14:14;12.70;;;3.22;;
21034;SDS011;10676;50.848;3.272;2023-07-13T01:16:41;14.13;;;2.85;;
21034;SDS011;10676;50.848;3.272;2023-07-13T01:19:23;14.25;;;3.20;;
21034;SDS011;10676;50.848;3.272;2023-07-13T01:21:55;17.52;;;3.05;;
21034;SDS011;10676;50.848;3.272;2023-07-13T01:24:21;15.23;;;2.95;;
21034;SDS011;10676;50.848;3.272;2023-07-13T01:26:47;16.30;;;3.28;;
21034;SDS011;10676;50.848;3.272;2023-07-13T01:29:21;14.18;;;3.40;;
21034;SDS011;10676;50.848;3.272;2023-07-13T01:31:47;15.40;;;3.55;;
21034;SDS011;10676;50.848;3.272;2023-07-13T01:34:13;10.65;;;3.05;;
21034;SDS011;10676;50.848;3.272;2023-07-13T01:36:40;15.95;;;3.75;;
21034;SDS011;10676;50.848;3.272;2023-07-13T01:39:06;12.77;;;3.20;;
21034;SDS011;10676;50.848;3.272;2023-07-13T01:41:32;17.83;;;3.20;;
21034;SDS011;10676;50.848;3.272;2023-07-13T01:43:57;15.40;;;3.42;;
21034;SDS011;10676;50.848;3.272;2023-07-13T01:46:23;14.85;;;3.42;;
21034;SDS011;10676;50.848;3.272;2023-07-13T01:48:49;17.33;;;3.38;;
21034;SDS011;10676;50.848;3.272;2023-07-13T01:51:15;13.35;;;4.05;;
21034;SDS011;10676;50.848;3.272;2023-07-13T01:53:42;16.75;;;3.70;;
21034;SDS011;10676;50.848;3.272;2023-07-13T01:56:07;22.27;;;3.65;;
21034;SDS011;10676;50.848;3.272;2023-07-13T01:58:33;16.25;;;3.53;;
21034;SDS011;10676;50.848;3.272;2023-07-13T02:00:59;14.95;;;3.42;;
21034;SDS011;10676;50.848;3.272;2023-07-13T02:03:25;17.70;;;3.95;;
21034;SDS011;10676;50.848;3.272;2023-07-13T02:05:51;11.43;;;3.55;;
21034;SDS011;10676;50.848;3.272;2023-07-13T02:08:24;16.88;;;3.70;;
21034;SDS011;10676;50.848;3.272;2023-07-13T02:10:49;14.55;;;3.22;;
21034;SDS011;10676;50.848;3.272;2023-07-13T02:13:15;14.00;;;4.32;;
21034;SDS011;10676;50.848;3.272;2023-07-13T02:15:43;20.70;;;4.05;;
21034;SDS011;10676;50.848;3.272;2023-07-13T02:18:08;11.18;;;3.55;;
21034;SDS011;10676;50.848;3.272;2023-07-13T02:20:34;15.52;;;3.53;;
21034;SDS011;10676;50.848;3.272;2023-07-13T02:23:00;14.85;;;3.80;;
21034;SDS011;10676;50.848;3.272;2023-07-13T02:25:27;12.98;;;4.05;;
21034;SDS011;10676;50.848;3.272;2023-07-13T02:27:53;11.52;;;3.67;;
21034;SDS011;10676;50.848;3.272;2023-07-13T02:30:18;15.65;;;3.90;;
21034;SDS011;10676;50.848;3.272;2023-07-13T02:32:45;13.98;;;4.05;;
21034;SDS011;10676;50.848;3.272;2023-07-13T02:35:10;17.90;;;4.30;;
21034;SDS011;10676;50.848;3.272;2023-07-13T02:37:36;19.60;;;4.63;;
21034;SDS011;10676;50.848;3.272;2023-07-13T02:40:02;22.55;;;4.68;;
21034;SDS011;10676;50.848;3.272;2023-07-13T02:42:33;16.10;;;4.15;;
21034;SDS011;10676;50.848;3.272;2023-07-13T02:44:59;17.98;;;4.63;;
21034;SDS011;10676;50.848;3.272;2023-07-13T02:47:25;11.55;;;4.25;;
21034;SDS011;10676;50.848;3.272;2023-07-13T02:49:51;20.35;;;4.47;;
21034;SDS011;10676;50.848;3.272;2023-07-13T02:52:17;18.90;;;5.50;;
21034;SDS011;10676;50.848;3.272;2023-07-13T02:54:43;25.67;;;4.88;;
21034;SDS011;10676;50.848;3.272;2023-07-13T02:57:09;15.98;;;4.90;;
21034;SDS011;10676;50.848;3.272;2023-07-13T02:59:40;19.67;;;5.07;;
21034;SDS011;10676;50.848;3.272;2023-07-13T03:02:05;16.77;;;4.95;;
21034;SDS011;10676;50.848;3.272;2023-07-13T03:04:31;17.73;;;5.20;;
21034;SDS011;10676;50.848;3.272;2023-07-13T03:06:56;19.52;;;5.13;;
21034;SDS011;10676;50.848;3.272;2023-07-13T03:09:33;18.70;;;5.53;;
21034;SDS011;10676;50.848;3.272;2023-07-13T03:11:59;21.20;;;5.65;;
21034;SDS011;10676;50.848;3.272;2023-07-13T03:14:25;12.95;;;5.65;;
21034;SDS011;10676;50.848;3.272;2023-07-13T03:16:51;11.82;;;5.45;;
21034;SDS011;10676;50.848;3.272;2023-07-13T03:19:17;13.00;;;5.38;;
21034;SDS011;10676;50.848;3.272;2023-07-13T03:21:43;18.27;;;5.32;;
21034;SDS011;10676;50.848;3.272;2023-07-13T03:24:09;16.42;;;5.68;;
21034;SDS011;10676;50.848;3.272;2023-07-13T03:26:35;21.58;;;5.13;;
21034;SDS011;10676;50.848;3.272;2023-07-13T03:29:01;19.70;;;5.25;;
21034;SDS011;10676;50.848;3.272;2023-07-13T03:31:29;14.02;;;5.28;;
21034;SDS011;10676;50.848;3.272;2023-07-13T03:33:58;15.05;;;4.97;;
21034;SDS011;10676;50.848;3.272;2023-07-13T03:36:25;16.05;;;5.25;;
21034;SDS011;10676;50.848;3.272;2023-07-13T03:38:54;21.75;;;5.47;;
21034;SDS011;10676;50.848;3.272;2023-07-13T03:41:22;25.00;;;5.97;;
21034;SDS011;10676;50.848;3.272;2023-07-13T03:43:48;19.23;;;6.07;;
21034;SDS011;10676;50.848;3.272;2023-07-13T03:46:15;18.30;;;5.85;;
21034;SDS011;10676;50.848;3.272;2023-07-13T03:48:41;15.77;;;5.35;;
21034;SDS011;10676;50.848;3.272;2023-07-13T03:51:09;15.32;;;5.47;;
21034;SDS011;10676;50.848;3.272;2023-07-13T03:53:39;19.33;;;5.60;;
21034;SDS011;10676;50.848;3.272;2023-07-13T03:56:06;17.02;;;5.82;;
21034;SDS011;10676;50.848;3.272;2023-07-13T03:58:34;20.98;;;5.90;;
21034;SDS011;10676;50.848;3.272;2023-07-13T04:01:02;14.88;;;5.68;;
21034;SDS011;10676;50.848;3.272;2023-07-13T04:03:31;20.45;;;5.65;;
21034;SDS011;10676;50.848;3.272;2023-07-13T04:06:01;18.40;;;5.28;;
21034;SDS011;10676;50.848;3.272;2023-07-13T04:08:28;17.92;;;4.70;;
21034;SDS011;10676;50.848;3.272;2023-07-13T04:10:55;21.38;;;4.15;;
21034;SDS011;10676;50.848;3.272;2023-07-13T04:13:22;17.75;;;4.78;;
21034;SDS011;10676;50.848;3.272;2023-07-13T04:15:48;19.92;;;4.57;;
21034;SDS011;10676;50.848;3.272;2023-07-13T04:18:15;19.95;;;4.68;;
21034;SDS011;10676;50.848;3.272;2023-07-13T04:20:41;16.42;;;4.25;;
21034;SDS011;10676;50.848;3.272;2023-07-13T04:23:07;15.05;;;4.03;;
21034;SDS011;10676;50.848;3.272;2023-07-13T04:25:32;15.75;;;4.47;;
21034;SDS011;10676;50.848;3.272;2023-07-13T04:27:59;15.23;;;4.50;;
21034;SDS011;10676;50.848;3.272;2023-07-13T04:30:25;16.10;;;3.88;;
21034;SDS011;10676;50.848;3.272;2023-07-13T04:32:51;24.15;;;4.35;;
21034;SDS011;10676;50.848;3.272;2023-07-13T04:35:18;16.25;;;4.15;;
21034;SDS011;10676;50.848;3.272;2023-07-13T04:37:48;18.52;;;3.50;;
21034;SDS011;10676;50.848;3.272;2023-07-13T04:40:15;14.02;;;3.70;;
21034;SDS011;10676;50.848;3.272;2023-07-13T04:42:47;11.95;;;3.35;;
21034;SDS011;10676;50.848;3.272;2023-07-13T04:45:16;13.10;;;3.40;;
21034;SDS011;10676;50.848;3.272;2023-07-13T04:47:46;11.25;;;3.33;;
21034;SDS011;10676;50.848;3.272;2023-07-13T04:50:20;13.02;;;3.42;;
21034;SDS011;10676;50.848;3.272;2023-07-13T04:52:48;15.38;;;3.28;;
21034;SDS011;10676;50.848;3.272;2023-07-13T04:55:19;15.57;;;3.55;;
21034;SDS011;10676;50.848;3.272;2023-07-13T04:57:45;23.02;;;4.30;;
21034;SDS011;10676;50.848;3.272;2023-07-13T05:00:12;17.85;;;4.28;;
21034;SDS011;10676;50.848;3.272;2023-07-13T05:02:40;13.88;;;3.17;;
21034;SDS011;10676;50.848;3.272;2023-07-13T05:05:08;13.70;;;3.55;;
21034;SDS011;10676;50.848;3.272;2023-07-13T05:07:34;10.40;;;3.03;;
21034;SDS011;10676;50.848;3.272;2023-07-13T05:10:00;9.20;;;3.58;;
21034;SDS011;10676;50.848;3.272;2023-07-13T05:12:27;15.63;;;3.45;;
21034;SDS011;10676;50.848;3.272;2023-07-13T05:14:58;10.20;;;3.13;;
21034;SDS011;10676;50.848;3.272;2023-07-13T05:17:24;13.00;;;3.47;;
21034;SDS011;10676;50.848;3.272;2023-07-13T05:19:50;10.02;;;3.00;;
21034;SDS011;10676;50.848;3.272;2023-07-13T05:22:15;13.05;;;3.00;;
21034;SDS011;10676;50.848;3.272;2023-07-13T05:24:41;14.85;;;3.00;;
21034;SDS011;10676;50.848;3.272;2023-07-13T05:27:07;13.15;;;2.97;;
21034;SDS011;10676;50.848;3.272;2023-07-13T05:29:33;14.98;;;2.90;;
21034;SDS011;10676;50.848;3.272;2023-07-13T05:31:59;16.40;;;3.67;;
21034;SDS011;10676;50.848;3.272;2023-07-13T05:34:24;12.93;;;3.10;;
21034;SDS011;10676;50.848;3.272;2023-07-13T05:36:51;10.27;;;3.25;;
21034;SDS011;10676;50.848;3.272;2023-07-13T05:39:18;16.73;;;3.10;;
21034;SDS011;10676;50.848;3.272;2023-07-13T05:41:44;16.35;;;3.28;;
21034;SDS011;10676;50.848;3.272;2023-07-13T05:44:09;10.90;;;3.00;;
21034;SDS011;10676;50.848;3.272;2023-07-13T05:46:37;11.05;;;3.58;;
21034;SDS011;10676;50.848;3.272;2023-07-13T05:49:03;13.43;;;2.63;;
21034;SDS011;10676;50.848;3.272;2023-07-13T05:51:30;15.52;;;3.35;;
21034;SDS011;10676;50.848;3.272;2023-07-13T05:53:56;14.05;;;3.25;;
21034;SDS011;10676;50.848;3.272;2023-07-13T05:56:21;14.00;;;3.17;;
21034;SDS011;10676;50.848;3.272;2023-07-13T05:58:51;11.40;;;2.95;;
21034;SDS011;10676;50.848;3.272;2023-07-13T06:01:17;16.70;;;3.88;;
21034;SDS011;10676;50.848;3.272;2023-07-13T06:03:45;18.55;;;3.05;;
21034;SDS011;10676;50.848;3.272;2023-07-13T06:06:16;18.52;;;3.17;;
21034;SDS011;10676;50.848;3.272;2023-07-13T06:08:42;14.82;;;3.03;;
21034;SDS011;10676;50.848;3.272;2023-07-13T06:11:14;11.10;;;3.17;;
21034;SDS011;10676;50.848;3.272;2023-07-13T06:13:47;13.70;;;3.15;;
21034;SDS011;10676;50.848;3.272;2023-07-13T06:16:14;15.10;;;3.38;;
21034;SDS011;10676;50.848;3.272;2023-07-13T06:18:41;19.02;;;3.10;;
21034;SDS011;10676;50.848;3.272;2023-07-13T06:21:08;14.82;;;3.00;;
21034;SDS011;10676;50.848;3.272;2023-07-13T06:23:35;11.18;;;3.03;;
21034;SDS011;10676;50.848;3.272;2023-07-13T06:26:01;14.05;;;3.03;;
21034;SDS011;10676;50.848;3.272;2023-07-13T06:28:28;15.18;;;3.00;;
21034;SDS011;10676;50.848;3.272;2023-07-13T06:30:55;14.00;;;2.65;;
21034;SDS011;10676;50.848;3.272;2023-07-13T06:33:21;15.13;;;2.88;;
21034;SDS011;10676;50.848;3.272;2023-07-13T06:35:49;16.00;;;3.17;;
21034;SDS011;10676;50.848;3.272;2023-07-13T06:38:16;10.90;;;2.45;;
21034;SDS011;10676;50.848;3.272;2023-07-13T06:40:42;10.30;;;2.30;;
21034;SDS011;10676;50.848;3.272;2023-07-13T06:43:07;9.93;;;2.58;;
21034;SDS011;10676;50.848;3.272;2023-07-13T06:45:51;9.98;;;2.58;;
21034;SDS011;10676;50.848;3.272;2023-07-13T06:48:20;15.60;;;2.90;;
21034;SDS011;10676;50.848;3.272;2023-07-13T06:50:46;13.65;;;2.83;;
21034;SDS011;10676;50.848;3.272;2023-07-13T06:53:13;18.92;;;3.20;;
21034;SDS011;10676;50.848;3.272;2023-07-13T06:55:39;13.20;;;2.60;;
21034;SDS011;10676;50.848;3.272;2023-07-13T06:58:05;12.27;;;2.67;;
21034;SDS011;10676;50.848;3.272;2023-07-13T07:00:31;14.77;;;3.10;;
21034;SDS011;10676;50.848;3.272;2023-07-13T07:02:56;11.55;;;2.55;;
21034;SDS011;10676;50.848;3.272;2023-07-13T07:05:22;12.68;;;2.67;;
21034;SDS011;10676;50.848;3.272;2023-07-13T07:07:51;11.02;;;2.83;;
21034;SDS011;10676;50.848;3.272;2023-07-13T07:10:18;9.32;;;2.40;;
21034;SDS011;10676;50.848;3.272;2023-07-13T07:12:44;13.30;;;2.53;;
21034;SDS011;10676;50.848;3.272;2023-07-13T07:15:20;11.20;;;2.47;;
21034;SDS011;10676;50.848;3.272;2023-07-13T07:17:45;12.55;;;3.22;;
21034;SDS011;10676;50.848;3.272;2023-07-13T07:20:11;14.60;;;2.85;;
21034;SDS011;10676;50.848;3.272;2023-07-13T07:22:37;10.02;;;2.38;;
21034;SDS011;10676;50.848;3.272;2023-07-13T07:25:03;10.65;;;2.67;;
21034;SDS011;10676;50.848;3.272;2023-07-13T07:27:30;10.45;;;2.47;;
21034;SDS011;10676;50.848;3.272;2023-07-13T07:29:57;11.57;;;2.30;;
21034;SDS011;10676;50.848;3.272;2023-07-13T07:34:53;14.15;;;2.58;;
21034;SDS011;10676;50.848;3.272;2023-07-13T07:37:19;9.07;;;2.25;;
21034;SDS011;10676;50.848;3.272;2023-07-13T07:39:45;9.43;;;2.70;;
21034;SDS011;10676;50.848;3.272;2023-07-13T07:42:10;13.68;;;2.72;;
21034;SDS011;10676;50.848;3.272;2023-07-13T07:44:37;13.30;;;2.40;;
21034;SDS011;10676;50.848;3.272;2023-07-13T07:47:03;12.20;;;2.67;;
21034;SDS011;10676;50.848;3.272;2023-07-13T07:49:29;9.77;;;2.55;;
21034;SDS011;10676;50.848;3.272;2023-07-13T07:51:54;9.60;;;2.20;;
21034;SDS011;10676;50.848;3.272;2023-07-13T07:54:20;14.43;;;2.72;;
21034;SDS011;10676;50.848;3.272;2023-07-13T07:56:46;13.38;;;2.40;;
21034;SDS011;10676;50.848;3.272;2023-07-13T07:59:11;12.07;;;2.53;;
21034;SDS011;10676;50.848;3.272;2023-07-13T08:01:37;9.73;;;2.35;;
21034;SDS011;10676;50.848;3.272;2023-07-13T08:04:03;7.90;;;2.22;;
21034;SDS011;10676;50.848;3.272;2023-07-13T08:06:29;11.52;;;2.45;;
21034;SDS011;10676;50.848;3.272;2023-07-13T08:08:58;12.02;;;2.60;;
21034;SDS011;10676;50.848;3.272;2023-07-13T08:11:24;10.40;;;2.60;;
21034;SDS011;10676;50.848;3.272;2023-07-13T08:13:50;11.10;;;2.35;;
21034;SDS011;10676;50.848;3.272;2023-07-13T08:16:16;7.65;;;2.03;;
21034;SDS011;10676;50.848;3.272;2023-07-13T08:18:41;9.35;;;2.35;;
21034;SDS011;10676;50.848;3.272;2023-07-13T08:21:08;10.98;;;2.17;;
21034;SDS011;10676;50.848;3.272;2023-07-13T08:23:35;7.25;;;2.28;;
21034;SDS011;10676;50.848;3.272;2023-07-13T08:26:01;11.07;;;2.00;;
21034;SDS011;10676;50.848;3.272;2023-07-13T08:28:28;12.75;;;2.30;;
21034;SDS011;10676;50.848;3.272;2023-07-13T08:30:54;10.10;;;1.80;;
21034;SDS011;10676;50.848;3.272;2023-07-13T08:33:19;10.18;;;2.33;;
21034;SDS011;10676;50.848;3.272;2023-07-13T08:35:48;12.43;;;2.22;;
21034;SDS011;10676;50.848;3.272;2023-07-13T08:38:15;13.18;;;2.90;;
21034;SDS011;10676;50.848;3.272;2023-07-13T08:40:42;8.40;;;2.17;;
21034;SDS011;10676;50.848;3.272;2023-07-13T08:43:18;9.02;;;2.30;;
21034;SDS011;10676;50.848;3.272;2023-07-13T08:45:52;9.73;;;2.03;;
21034;SDS011;10676;50.848;3.272;2023-07-13T08:48:29;13.73;;;2.22;;
21034;SDS011;10676;50.848;3.272;2023-07-13T08:51:02;10.27;;;2.28;;
21034;SDS011;10676;50.848;3.272;2023-07-13T08:53:38;9.23;;;2.05;;
21034;SDS011;10676;50.848;3.272;2023-07-13T08:56:28;9.57;;;2.15;;
21034;SDS011;10676;50.848;3.272;2023-07-13T08:58:58;8.60;;;2.65;;
21034;SDS011;10676;50.848;3.272;2023-07-13T09:01:33;10.68;;;2.05;;
21034;SDS011;10676;50.848;3.272;2023-07-13T09:04:18;6.68;;;1.65;;
21034;SDS011;10676;50.848;3.272;2023-07-13T09:15:22;8.27;;;2.05;;
21034;SDS011;10676;50.848;3.272;2023-07-13T09:17:51;4.60;;;1.50;;
21034;SDS011;10676;50.848;3.272;2023-07-13T09:20:27;7.20;;;1.77;;
21034;SDS011;10676;50.848;3.272;2023-07-13T09:23:04;9.38;;;2.00;;
21034;SDS011;10676;50.848;3.272;2023-07-13T09:25:35;5.35;;;1.70;;
21034;SDS011;10676;50.848;3.272;2023-07-13T09:28:08;8.80;;;1.88;;
21034;SDS011;10676;50.848;3.272;2023-07-13T09:33:35;11.13;;;2.03;;
21034;SDS011;10676;50.848;3.272;2023-07-13T09:36:01;7.63;;;1.90;;
21034;SDS011;10676;50.848;3.272;2023-07-13T09:38:42;5.55;;;1.90;;
21034;SDS011;10676;50.848;3.272;2023-07-13T09:44:12;7.70;;;1.85;;
21034;SDS011;10676;50.848;3.272;2023-07-13T09:46:43;6.10;;;1.50;;
21034;SDS011;10676;50.848;3.272;2023-07-13T09:49:10;7.88;;;1.55;;
21034;SDS011;10676;50.848;3.272;2023-07-13T09:51:37;3.97;;;1.30;;
21034;SDS011;10676;50.848;3.272;2023-07-13T09:54:05;4.93;;;1.42;;
21034;SDS011;10676;50.848;3.272;2023-07-13T09:56:31;6.53;;;1.52;;
21034;SDS011;10676;50.848;3.272;2023-07-13T09:58:57;4.65;;;1.42;;
21034;SDS011;10676;50.848;3.272;2023-07-13T10:01:36;5.60;;;1.58;;
21034;SDS011;10676;50.848;3.272;2023-07-13T10:04:12;6.50;;;1.50;;
21034;SDS011;10676;50.848;3.272;2023-07-13T10:06:41;7.30;;;1.95;;
21034;SDS011;10676;50.848;3.272;2023-07-13T10:09:08;7.15;;;1.40;;
21034;SDS011;10676;50.848;3.272;2023-07-13T10:11:35;4.18;;;1.48;;
21034;SDS011;10676;50.848;3.272;2023-07-13T10:14:13;4.40;;;1.15;;
21034;SDS011;10676;50.848;3.272;2023-07-13T10:16:41;5.25;;;1.58;;
21034;SDS011;10676;50.848;3.272;2023-07-13T10:19:17;6.15;;;1.50;;
21034;SDS011;10676;50.848;3.272;2023-07-13T10:24:22;7.68;;;1.90;;
21034;SDS011;10676;50.848;3.272;2023-07-13T10:29:50;3.85;;;1.50;;
21034;SDS011;10676;50.848;3.272;2023-07-13T10:32:21;3.05;;;1.40;;
21034;SDS011;10676;50.848;3.272;2023-07-13T10:34:49;8.35;;;2.13;;
21034;SDS011;10676;50.848;3.272;2023-07-13T10:37:19;6.70;;;2.03;;
21034;SDS011;10676;50.848;3.272;2023-07-13T10:39:52;4.47;;;2.50;;
21034;SDS011;10676;50.848;3.272;2023-07-13T10:42:39;7.45;;;2.55;;
21034;SDS011;10676;50.848;3.272;2023-07-13T10:45:20;4.68;;;3.15;;
21034;SDS011;10676;50.848;3.272;2023-07-13T10:47:48;4.20;;;3.15;;
21034;SDS011;10676;50.848;3.272;2023-07-13T10:50:21;3.75;;;2.13;;
21034;SDS011;10676;50.848;3.272;2023-07-13T10:53:36;4.18;;;2.15;;
21034;SDS011;10676;50.848;3.272;2023-07-13T10:58:19;5.50;;;1.95;;
21034;SDS011;10676;50.848;3.272;2023-07-13T11:00:57;4.60;;;2.00;;
21034;SDS011;10676;50.848;3.272;2023-07-13T11:03:30;4.00;;;1.55;;
21034;SDS011;10676;50.848;3.272;2023-07-13T11:08:50;5.18;;;1.40;;
21034;SDS011;10676;50.848;3.272;2023-07-13T11:11:39;3.72;;;1.60;;
21034;SDS011;10676;50.848;3.272;2023-07-13T11:14:04;2.75;;;1.40;;
21034;SDS011;10676;50.848;3.272;2023-07-13T11:16:49;3.70;;;1.40;;
21034;SDS011;10676;50.848;3.272;2023-07-13T11:22:01;5.05;;;1.70;;
21034;SDS011;10676;50.848;3.272;2023-07-13T11:27:39;4.68;;;1.40;;
21034;SDS011;10676;50.848;3.272;2023-07-13T11:33:01;4.43;;;1.50;;
21034;SDS011;10676;50.848;3.272;2023-07-13T11:35:45;9.32;;;1.92;;
21034;SDS011;10676;50.848;3.272;2023-07-13T11:38:30;3.63;;;1.55;;
21034;SDS011;10676;50.848;3.272;2023-07-13T11:41:15;5.05;;;1.85;;
21034;SDS011;10676;50.848;3.272;2023-07-13T11:43:43;3.10;;;1.25;;
21034;SDS011;10676;50.848;3.272;2023-07-13T11:46:20;4.72;;;1.13;;
21034;SDS011;10676;50.848;3.272;2023-07-13T11:48:48;2.97;;;1.05;;
21034;SDS011;10676;50.848;3.272;2023-07-13T11:51:29;1.92;;;1.00;;
21034;SDS011;10676;50.848;3.272;2023-07-13T11:53:57;3.05;;;1.00;;
21034;SDS011;10676;50.848;3.272;2023-07-13T11:56:38;1.38;;;0.85;;
21034;SDS011;10676;50.848;3.272;2023-07-13T11:59:06;3.10;;;0.98;;
21034;SDS011;10676;50.848;3.272;2023-07-13T12:01:33;3.55;;;1.17;;
21034;SDS011;10676;50.848;3.272;2023-07-13T12:04:01;2.70;;;1.10;;
21034;SDS011;10676;50.848;3.272;2023-07-13T12:06:29;2.58;;;0.80;;
21034;SDS011;10676;50.848;3.272;2023-07-13T12:08:57;5.78;;;1.17;;
21034;SDS011;10676;50.848;3.272;2023-07-13T12:11:34;3.50;;;1.10;;
21034;SDS011;10676;50.848;3.272;2023-07-13T12:14:02;2.53;;;0.95;;
21034;SDS011;10676;50.848;3.272;2023-07-13T12:16:33;1.98;;;0.98;;
21034;SDS011;10676;50.848;3.272;2023-07-13T12:19:00;1.58;;;0.85;;
21034;SDS011;10676;50.848;3.272;2023-07-13T12:21:31;1.92;;;1.05;;
21034;SDS011;10676;50.848;3.272;2023-07-13T12:23:58;3.53;;;0.90;;
21034;SDS011;10676;50.848;3.272;2023-07-13T12:26:27;2.75;;;1.08;;
21034;SDS011;10676;50.848;3.272;2023-07-13T12:28:55;3.08;;;0.98;;
21034;SDS011;10676;50.848;3.272;2023-07-13T12:34:03;2.78;;;0.82;;
21034;SDS011;10676;50.848;3.272;2023-07-13T12:36:34;4.28;;;1.20;;
21034;SDS011;10676;50.848;3.272;2023-07-13T12:39:11;2.92;;;0.93;;
21034;SDS011;10676;50.848;3.272;2023-07-13T12:41:39;2.78;;;0.98;;
21034;SDS011;10676;50.848;3.272;2023-07-13T12:44:15;3.33;;;0.80;;
21034;SDS011;10676;50.848;3.272;2023-07-13T12:46:57;4.07;;;1.08;;
21034;SDS011;10676;50.848;3.272;2023-07-13T12:49:24;3.10;;;1.00;;
21034;SDS011;10676;50.848;3.272;2023-07-13T12:51:57;2.40;;;1.05;;
21034;SDS011;10676;50.848;3.272;2023-07-13T12:54:25;4.35;;;1.05;;
21034;SDS011;10676;50.848;3.272;2023-07-13T12:59:23;2.22;;;1.02;;
21034;SDS011;10676;50.848;3.272;2023-07-13T13:01:54;6.95;;;1.05;;
21034;SDS011;10676;50.848;3.272;2023-07-13T13:04:20;2.35;;;1.25;;
21034;SDS011;10676;50.848;3.272;2023-07-13T13:06:46;2.28;;;0.80;;
21034;SDS011;10676;50.848;3.272;2023-07-13T13:09:13;2.38;;;0.80;;
21034;SDS011;10676;50.848;3.272;2023-07-13T13:11:41;2.78;;;1.08;;
21034;SDS011;10676;50.848;3.272;2023-07-13T13:14:07;1.45;;;0.80;;
21034;SDS011;10676;50.848;3.272;2023-07-13T13:21:39;2.22;;;1.17;;
21034;SDS011;10676;50.848;3.272;2023-07-13T13:24:12;2.83;;;0.82;;
21034;SDS011;10676;50.848;3.272;2023-07-13T13:26:40;1.65;;;0.90;;
21034;SDS011;10676;50.848;3.272;2023-07-13T13:29:13;3.00;;;1.08;;
21034;SDS011;10676;50.848;3.272;2023-07-13T13:31:42;2.53;;;1.00;;
21034;SDS011;10676;50.848;3.272;2023-07-13T13:34:12;3.95;;;1.00;;
21034;SDS011;10676;50.848;3.272;2023-07-13T13:36:40;2.95;;;0.90;;
21034;SDS011;10676;50.848;3.272;2023-07-13T13:39:18;2.67;;;1.08;;
21034;SDS011;10676;50.848;3.272;2023-07-13T13:41:45;2.97;;;0.85;;
21034;SDS011;10676;50.848;3.272;2023-07-13T13:44:12;1.42;;;0.63;;
21034;SDS011;10676;50.848;3.272;2023-07-13T13:46:41;2.00;;;0.75;;
21034;SDS011;10676;50.848;3.272;2023-07-13T13:49:17;2.20;;;0.80;;
21034;SDS011;10676;50.848;3.272;2023-07-13T13:51:48;3.47;;;0.90;;
21034;SDS011;10676;50.848;3.272;2023-07-13T13:54:15;1.45;;;0.90;;
21034;SDS011;10676;50.848;3.272;2023-07-13T13:56:43;1.33;;;0.80;;
21034;SDS011;10676;50.848;3.272;2023-07-13T13:59:10;1.10;;;0.77;;
21034;SDS011;10676;50.848;3.272;2023-07-13T14:01:37;2.47;;;0.88;;
21034;SDS011;10676;50.848;3.272;2023-07-13T14:04:04;3.13;;;1.35;;
21034;SDS011;10676;50.848;3.272;2023-07-13T14:06:31;1.80;;;0.93;;
21034;SDS011;10676;50.848;3.272;2023-07-13T14:08:57;1.92;;;1.00;;
21034;SDS011;10676;50.848;3.272;2023-07-13T14:11:25;1.92;;;0.93;;
21034;SDS011;10676;50.848;3.272;2023-07-13T14:13:52;1.88;;;0.90;;
21034;SDS011;10676;50.848;3.272;2023-07-13T14:16:32;2.58;;;0.90;;
21034;SDS011;10676;50.848;3.272;2023-07-13T14:18:59;3.97;;;0.90;;
21034;SDS011;10676;50.848;3.272;2023-07-13T14:21:25;2.35;;;0.85;;
21034;SDS011;10676;50.848;3.272;2023-07-13T14:23:53;1.90;;;1.00;;
21034;SDS011;10676;50.848;3.272;2023-07-13T14:26:21;2.05;;;0.90;;
21034;SDS011;10676;50.848;3.272;2023-07-13T14:28:50;2.70;;;0.82;;
21034;SDS011;10676;50.848;3.272;2023-07-13T14:31:21;1.85;;;0.90;;
21034;SDS011;10676;50.848;3.272;2023-07-13T14:33:48;2.78;;;0.90;;
21034;SDS011;10676;50.848;3.272;2023-07-13T14:39:13;3.38;;;1.10;;
21034;SDS011;10676;50.848;3.272;2023-07-13T14:41:41;3.67;;;1.10;;
21034;SDS011;10676;50.848;3.272;2023-07-13T14:44:14;1.08;;;0.88;;
21034;SDS011;10676;50.848;3.272;2023-07-13T14:46:42;2.00;;;0.90;;
21034;SDS011;10676;50.848;3.272;2023-07-13T14:49:13;1.75;;;0.90;;
21034;SDS011;10676;50.848;3.272;2023-07-13T14:51:47;6.30;;;1.10;;
21034;SDS011;10676;50.848;3.272;2023-07-13T14:54:13;2.35;;;0.82;;
21034;SDS011;10676;50.848;3.272;2023-07-13T14:56:39;2.67;;;0.90;;
21034;SDS011;10676;50.848;3.272;2023-07-13T14:59:05;3.85;;;1.00;;
21034;SDS011;10676;50.848;3.272;2023-07-13T15:01:32;1.80;;;1.00;;
21034;SDS011;10676;50.848;3.272;2023-07-13T15:03:59;2.42;;;1.08;;
21034;SDS011;10676;50.848;3.272;2023-07-13T15:06:46;1.92;;;1.40;;
21034;SDS011;10676;50.848;3.272;2023-07-13T15:09:25;2.17;;;1.00;;
21034;SDS011;10676;50.848;3.272;2023-07-13T15:11:52;1.80;;;1.00;;
21034;SDS011;10676;50.848;3.272;2023-07-13T15:14:19;1.90;;;0.95;;
21034;SDS011;10676;50.848;3.272;2023-07-13T15:16:46;2.70;;;0.98;;
21034;SDS011;10676;50.848;3.272;2023-07-13T15:19:14;1.30;;;0.95;;
21034;SDS011;10676;50.848;3.272;2023-07-13T15:21:41;2.78;;;1.05;;
21034;SDS011;10676;50.848;3.272;2023-07-13T15:24:10;3.45;;;0.90;;
21034;SDS011;10676;50.848;3.272;2023-07-13T15:26:36;2.42;;;1.00;;
21034;SDS011;10676;50.848;3.272;2023-07-13T15:29:04;5.32;;;1.02;;
21034;SDS011;10676;50.848;3.272;2023-07-13T15:31:31;3.10;;;0.80;;
21034;SDS011;10676;50.848;3.272;2023-07-13T15:33:59;3.08;;;1.20;;
21034;SDS011;10676;50.848;3.272;2023-07-13T15:36:30;1.67;;;0.93;;
21034;SDS011;10676;50.848;3.272;2023-07-13T15:38:56;3.05;;;1.10;;